KAKR

Akron Fulton International Airport

Akron, Ohio, USA
METAR KAKR 251854Z AUTO 21011G18KT 10SM OVC009 23/20 A3005 RMK AO2 SLP168 T02280200
Observed Flight Rules
Sep-25 @ 18:54 UTC (8 minutes ago) Instrument Flight Rules
Wind Visibility Clouds
210° at 11 knots
 Gusting to 18 knots
10 miles
  • Overcast at 900' AGL
Temperatures Readings
Current 23°C / 73°F
Dewpoint 20°C / 68°F
Humidity 83%
Altimeter 30.05" Hg
Pressure 1016.8 hPa
Elevation 363
METAR KAKR 251854Z AUTO 21011G18KT 10SM OVC009 23/20 A3005 RMK AO2 SLP168 T02280200
Observed Flight Rules
Sep-25 @ 18:54 UTC
(8 minutes ago)
IFR
Wind Visibility
210° at 11 knots
 Gusting to 18 knots
10 miles
Clouds
  • Overcast at 900' AGL
Temperature Dewpoint
23°C / 73°F 20°C / 68°F
Humidity Altimeter Pressure
83% 30.05" Hg 1016.8 hPa